Reeseville, Wisconsin
Current Conditions -  °F | °C
As of 4:55 PM on Thursday 27 Nov 2014 (Local Time) from KRYV Reporting Station
Overcast Overcast  
Wind Chill: 16°   Ceiling: 2300
Heat Index: 16°   Visibility: 10mi
Dew Point: 10°   Wind: 3mph
Humidity: 77%   Direction: 290°WNW
Pressure: 30.39"   Gusts: NA
Location:  43.3°N, 88.84°W
Report Text: KRYV 272255Z AUTO 29003KT 10SM OVC023 M09/M12 A3039 RMK AO2 T10911125
Loading
Personal Weather Stations






























Interactive Weather Map New forecast layout! Learn more

10-Day Weather Forecast

Advertisements
Track Severe Weather on mobile